Login to view products. 
Tuesday, February 28, 2017 (00:58 UTC)
Sharjah International Airport
ICAO Code: OMSJ
IATA Code: SHJ
  • METAR OMSJ 280030Z 18003KT CAVOK 15/12 Q1018=
  • TAF OMSJ 272256Z 2800/0106 15005KT 8000 NSC PROB30 2800/2805 3000 HZ BECMG 2807/2809 33010KT BECMG 2816/2818 15005KT PROB30 2823/0105 1500 BR=